sensor_id;sensor_type;location;lat;lon;timestamp;temperature;humidity
802;DHT22;383;48.766;9.270;2023-04-24T00:02:08;12.90;90.40
802;DHT22;383;48.766;9.270;2023-04-24T00:04:36;12.90;90.10
802;DHT22;383;48.766;9.270;2023-04-24T00:07:08;12.90;90.50
802;DHT22;383;48.766;9.270;2023-04-24T00:09:35;12.90;90.00
802;DHT22;383;48.766;9.270;2023-04-24T00:12:03;13.00;90.10
802;DHT22;383;48.766;9.270;2023-04-24T00:14:30;13.00;89.70
802;DHT22;383;48.766;9.270;2023-04-24T00:16:57;13.00;89.70
802;DHT22;383;48.766;9.270;2023-04-24T00:19:24;13.00;89.90
802;DHT22;383;48.766;9.270;2023-04-24T00:21:51;12.90;89.90
802;DHT22;383;48.766;9.270;2023-04-24T00:24:17;13.00;90.20
802;DHT22;383;48.766;9.270;2023-04-24T00:26:44;13.00;90.30
802;DHT22;383;48.766;9.270;2023-04-24T00:29:12;13.00;90.70
802;DHT22;383;48.766;9.270;2023-04-24T00:31:39;13.00;89.80
802;DHT22;383;48.766;9.270;2023-04-24T00:34:06;13.00;89.70
802;DHT22;383;48.766;9.270;2023-04-24T00:36:33;13.10;89.40
802;DHT22;383;48.766;9.270;2023-04-24T00:39:00;13.00;89.70
802;DHT22;383;48.766;9.270;2023-04-24T00:41:30;13.00;89.90
802;DHT22;383;48.766;9.270;2023-04-24T00:43:56;13.00;90.20
802;DHT22;383;48.766;9.270;2023-04-24T00:46:25;13.10;90.10
802;DHT22;383;48.766;9.270;2023-04-24T00:48:52;13.20;88.00
802;DHT22;383;48.766;9.270;2023-04-24T00:51:18;13.00;89.70
802;DHT22;383;48.766;9.270;2023-04-24T00:53:46;13.00;90.00
802;DHT22;383;48.766;9.270;2023-04-24T00:56:13;13.00;90.20
802;DHT22;383;48.766;9.270;2023-04-24T00:58:40;13.10;90.70
802;DHT22;383;48.766;9.270;2023-04-24T01:01:08;13.10;90.50
802;DHT22;383;48.766;9.270;2023-04-24T01:03:36;13.10;90.00
802;DHT22;383;48.766;9.270;2023-04-24T01:06:04;13.20;89.60
802;DHT22;383;48.766;9.270;2023-04-24T01:08:32;13.20;89.70
802;DHT22;383;48.766;9.270;2023-04-24T01:10:59;13.20;89.40
802;DHT22;383;48.766;9.270;2023-04-24T01:13:29;13.20;89.00
802;DHT22;383;48.766;9.270;2023-04-24T01:15:56;13.20;89.00
802;DHT22;383;48.766;9.270;2023-04-24T01:18:23;13.20;88.00
802;DHT22;383;48.766;9.270;2023-04-24T01:20:53;13.20;87.60
802;DHT22;383;48.766;9.270;2023-04-24T01:23:24;13.30;87.30
802;DHT22;383;48.766;9.270;2023-04-24T01:25:52;13.30;87.10
802;DHT22;383;48.766;9.270;2023-04-24T01:28:19;13.30;87.10
802;DHT22;383;48.766;9.270;2023-04-24T01:30:46;13.20;88.10
802;DHT22;383;48.766;9.270;2023-04-24T01:33:16;13.30;89.30
802;DHT22;383;48.766;9.270;2023-04-24T01:35:42;13.20;89.40
802;DHT22;383;48.766;9.270;2023-04-24T01:40:54;13.20;89.20
802;DHT22;383;48.766;9.270;2023-04-24T01:43:24;13.30;89.20
802;DHT22;383;48.766;9.270;2023-04-24T01:45:54;13.30;89.00
802;DHT22;383;48.766;9.270;2023-04-24T01:48:22;13.20;88.00
802;DHT22;383;48.766;9.270;2023-04-24T01:50:49;13.20;88.50
802;DHT22;383;48.766;9.270;2023-04-24T01:53:16;13.20;89.00
802;DHT22;383;48.766;9.270;2023-04-24T01:55:42;13.20;89.20
802;DHT22;383;48.766;9.270;2023-04-24T01:58:11;13.20;89.60
802;DHT22;383;48.766;9.270;2023-04-24T02:00:38;13.20;90.00
802;DHT22;383;48.766;9.270;2023-04-24T02:03:04;13.20;89.80
802;DHT22;383;48.766;9.270;2023-04-24T02:05:31;13.20;89.60
802;DHT22;383;48.766;9.270;2023-04-24T02:07:58;13.20;89.00
802;DHT22;383;48.766;9.270;2023-04-24T02:10:25;13.20;89.60
802;DHT22;383;48.766;9.270;2023-04-24T02:12:52;13.20;89.60
802;DHT22;383;48.766;9.270;2023-04-24T02:15:29;13.20;89.40
802;DHT22;383;48.766;9.270;2023-04-24T02:17:55;13.10;89.20
802;DHT22;383;48.766;9.270;2023-04-24T02:20:22;13.00;88.40
802;DHT22;383;48.766;9.270;2023-04-24T02:22:49;13.00;88.00
802;DHT22;383;48.766;9.270;2023-04-24T02:25:16;12.90;88.80
802;DHT22;383;48.766;9.270;2023-04-24T02:27:43;12.90;89.40
802;DHT22;383;48.766;9.270;2023-04-24T02:30:10;13.00;89.30
802;DHT22;383;48.766;9.270;2023-04-24T02:32:38;13.00;89.20
802;DHT22;383;48.766;9.270;2023-04-24T02:35:06;13.00;88.80
802;DHT22;383;48.766;9.270;2023-04-24T02:37:33;13.00;87.80
802;DHT22;383;48.766;9.270;2023-04-24T02:39:59;13.10;88.60
802;DHT22;383;48.766;9.270;2023-04-24T02:42:26;13.00;87.60
802;DHT22;383;48.766;9.270;2023-04-24T02:44:53;12.90;88.60
802;DHT22;383;48.766;9.270;2023-04-24T02:47:20;12.90;87.70
802;DHT22;383;48.766;9.270;2023-04-24T02:49:48;12.90;88.60
802;DHT22;383;48.766;9.270;2023-04-24T02:52:14;12.90;88.80
802;DHT22;383;48.766;9.270;2023-04-24T02:54:42;12.90;89.20
802;DHT22;383;48.766;9.270;2023-04-24T02:57:09;13.00;89.30
802;DHT22;383;48.766;9.270;2023-04-24T02:59:35;13.00;90.00
802;DHT22;383;48.766;9.270;2023-04-24T03:02:02;13.00;90.20
802;DHT22;383;48.766;9.270;2023-04-24T03:04:29;13.00;91.00
802;DHT22;383;48.766;9.270;2023-04-24T03:06:57;13.00;91.20
802;DHT22;383;48.766;9.270;2023-04-24T03:09:24;13.00;90.90
802;DHT22;383;48.766;9.270;2023-04-24T03:11:53;13.00;91.30
802;DHT22;383;48.766;9.270;2023-04-24T03:14:21;12.90;91.80
802;DHT22;383;48.766;9.270;2023-04-24T03:16:50;13.00;90.50
802;DHT22;383;48.766;9.270;2023-04-24T03:19:16;13.00;91.10
802;DHT22;383;48.766;9.270;2023-04-24T03:21:44;12.80;91.90
802;DHT22;383;48.766;9.270;2023-04-24T03:24:13;12.80;92.10
802;DHT22;383;48.766;9.270;2023-04-24T03:26:39;12.70;92.20
802;DHT22;383;48.766;9.270;2023-04-24T03:29:06;12.60;92.30
802;DHT22;383;48.766;9.270;2023-04-24T03:31:33;12.50;92.40
802;DHT22;383;48.766;9.270;2023-04-24T03:34:00;12.50;92.30
802;DHT22;383;48.766;9.270;2023-04-24T03:36:27;12.50;92.30
802;DHT22;383;48.766;9.270;2023-04-24T03:38:53;12.50;92.60
802;DHT22;383;48.766;9.270;2023-04-24T03:41:25;12.50;93.00
802;DHT22;383;48.766;9.270;2023-04-24T03:43:52;12.50;93.50
802;DHT22;383;48.766;9.270;2023-04-24T03:46:19;12.40;92.80
802;DHT22;383;48.766;9.270;2023-04-24T03:48:45;12.40;92.70
802;DHT22;383;48.766;9.270;2023-04-24T03:51:12;12.50;92.60
802;DHT22;383;48.766;9.270;2023-04-24T03:53:39;12.40;92.50
802;DHT22;383;48.766;9.270;2023-04-24T03:56:06;12.40;92.80
802;DHT22;383;48.766;9.270;2023-04-24T03:58:34;12.30;93.10
802;DHT22;383;48.766;9.270;2023-04-24T04:01:00;12.30;93.10
802;DHT22;383;48.766;9.270;2023-04-24T04:03:27;12.30;93.40
802;DHT22;383;48.766;9.270;2023-04-24T04:05:54;12.20;93.10
802;DHT22;383;48.766;9.270;2023-04-24T04:08:21;12.20;93.00
802;DHT22;383;48.766;9.270;2023-04-24T04:10:47;12.20;92.90
802;DHT22;383;48.766;9.270;2023-04-24T04:13:14;12.20;93.10
802;DHT22;383;48.766;9.270;2023-04-24T04:15:42;12.10;93.10
802;DHT22;383;48.766;9.270;2023-04-24T04:18:09;12.20;92.90
802;DHT22;383;48.766;9.270;2023-04-24T04:20:36;12.20;93.20
802;DHT22;383;48.766;9.270;2023-04-24T04:23:02;12.10;93.80
802;DHT22;383;48.766;9.270;2023-04-24T04:25:29;12.10;93.80
802;DHT22;383;48.766;9.270;2023-04-24T04:27:56;12.20;94.00
802;DHT22;383;48.766;9.270;2023-04-24T04:30:23;12.20;93.80
802;DHT22;383;48.766;9.270;2023-04-24T04:32:52;12.20;93.70
802;DHT22;383;48.766;9.270;2023-04-24T04:35:19;12.30;94.10
802;DHT22;383;48.766;9.270;2023-04-24T04:37:46;12.30;94.40
802;DHT22;383;48.766;9.270;2023-04-24T04:40:12;12.30;95.20
802;DHT22;383;48.766;9.270;2023-04-24T04:42:39;12.20;96.30
802;DHT22;383;48.766;9.270;2023-04-24T04:45:07;12.20;95.80
802;DHT22;383;48.766;9.270;2023-04-24T04:47:37;12.10;96.60
802;DHT22;383;48.766;9.270;2023-04-24T04:50:07;12.00;96.70
802;DHT22;383;48.766;9.270;2023-04-24T04:52:33;11.80;95.30
802;DHT22;383;48.766;9.270;2023-04-24T04:55:00;11.70;94.90
802;DHT22;383;48.766;9.270;2023-04-24T04:57:27;11.70;95.30
802;DHT22;383;48.766;9.270;2023-04-24T04:59:54;11.50;93.90
802;DHT22;383;48.766;9.270;2023-04-24T05:02:20;11.40;95.00
802;DHT22;383;48.766;9.270;2023-04-24T05:04:47;11.40;94.10
802;DHT22;383;48.766;9.270;2023-04-24T05:07:15;11.40;94.50
802;DHT22;383;48.766;9.270;2023-04-24T05:09:42;11.40;94.10
802;DHT22;383;48.766;9.270;2023-04-24T05:12:10;11.30;94.90
802;DHT22;383;48.766;9.270;2023-04-24T05:14:36;11.40;96.20
802;DHT22;383;48.766;9.270;2023-04-24T05:17:03;11.30;96.10
802;DHT22;383;48.766;9.270;2023-04-24T05:19:30;11.30;95.60
802;DHT22;383;48.766;9.270;2023-04-24T05:21:58;11.20;94.10
802;DHT22;383;48.766;9.270;2023-04-24T05:24:29;11.20;94.10
802;DHT22;383;48.766;9.270;2023-04-24T05:26:56;11.20;95.20
802;DHT22;383;48.766;9.270;2023-04-24T05:29:26;11.20;94.60
802;DHT22;383;48.766;9.270;2023-04-24T05:31:54;11.30;94.40
802;DHT22;383;48.766;9.270;2023-04-24T05:34:20;11.20;93.90
802;DHT22;383;48.766;9.270;2023-04-24T05:36:47;11.20;94.70
802;DHT22;383;48.766;9.270;2023-04-24T05:39:15;11.20;94.10
802;DHT22;383;48.766;9.270;2023-04-24T05:41:43;11.20;94.10
802;DHT22;383;48.766;9.270;2023-04-24T05:44:10;11.30;93.50
802;DHT22;383;48.766;9.270;2023-04-24T05:46:36;11.30;93.30
802;DHT22;383;48.766;9.270;2023-04-24T05:49:03;11.40;92.90
802;DHT22;383;48.766;9.270;2023-04-24T05:51:30;11.50;93.80
802;DHT22;383;48.766;9.270;2023-04-24T05:53:57;11.60;93.50
802;DHT22;383;48.766;9.270;2023-04-24T05:56:24;11.70;93.50
802;DHT22;383;48.766;9.270;2023-04-24T05:58:52;11.90;93.70
802;DHT22;383;48.766;9.270;2023-04-24T06:01:18;12.00;92.10
802;DHT22;383;48.766;9.270;2023-04-24T06:03:46;12.10;92.10
802;DHT22;383;48.766;9.270;2023-04-24T06:06:12;12.20;91.30
802;DHT22;383;48.766;9.270;2023-04-24T06:08:39;12.30;91.50
802;DHT22;383;48.766;9.270;2023-04-24T06:11:07;12.30;90.90
802;DHT22;383;48.766;9.270;2023-04-24T06:13:34;12.30;90.20
802;DHT22;383;48.766;9.270;2023-04-24T06:16:02;12.30;88.10
802;DHT22;383;48.766;9.270;2023-04-24T06:18:29;12.20;90.10
802;DHT22;383;48.766;9.270;2023-04-24T06:20:56;12.30;90.70
802;DHT22;383;48.766;9.270;2023-04-24T06:23:23;12.30;91.00
802;DHT22;383;48.766;9.270;2023-04-24T06:25:49;12.40;91.30
802;DHT22;383;48.766;9.270;2023-04-24T06:28:16;12.50;88.50
802;DHT22;383;48.766;9.270;2023-04-24T06:30:43;12.50;88.50
802;DHT22;383;48.766;9.270;2023-04-24T06:33:11;12.50;89.90
802;DHT22;383;48.766;9.270;2023-04-24T06:35:38;12.60;89.40
802;DHT22;383;48.766;9.270;2023-04-24T06:38:05;12.50;89.20
802;DHT22;383;48.766;9.270;2023-04-24T06:40:32;12.60;89.80
802;DHT22;383;48.766;9.270;2023-04-24T06:43:01;12.70;89.80
802;DHT22;383;48.766;9.270;2023-04-24T06:45:28;12.70;88.90
802;DHT22;383;48.766;9.270;2023-04-24T06:47:55;12.80;87.70
802;DHT22;383;48.766;9.270;2023-04-24T06:50:24;12.90;84.30
802;DHT22;383;48.766;9.270;2023-04-24T06:52:51;13.00;82.80
802;DHT22;383;48.766;9.270;2023-04-24T06:55:18;12.90;85.50
802;DHT22;383;48.766;9.270;2023-04-24T06:57:45;13.00;81.90
802;DHT22;383;48.766;9.270;2023-04-24T07:00:12;13.00;84.70
802;DHT22;383;48.766;9.270;2023-04-24T07:02:39;13.10;85.60
802;DHT22;383;48.766;9.270;2023-04-24T07:05:06;13.20;83.70
802;DHT22;383;48.766;9.270;2023-04-24T07:07:35;13.30;82.20
802;DHT22;383;48.766;9.270;2023-04-24T07:10:04;13.50;79.70
802;DHT22;383;48.766;9.270;2023-04-24T07:12:30;13.70;77.50
802;DHT22;383;48.766;9.270;2023-04-24T07:14:57;13.80;77.80
802;DHT22;383;48.766;9.270;2023-04-24T07:17:24;13.90;77.30
802;DHT22;383;48.766;9.270;2023-04-24T07:19:51;14.00;76.90
802;DHT22;383;48.766;9.270;2023-04-24T07:22:17;14.10;75.70
802;DHT22;383;48.766;9.270;2023-04-24T07:24:46;14.10;77.30
802;DHT22;383;48.766;9.270;2023-04-24T07:27:12;14.20;78.50
802;DHT22;383;48.766;9.270;2023-04-24T07:29:40;14.30;77.80
802;DHT22;383;48.766;9.270;2023-04-24T07:32:07;14.20;77.00
802;DHT22;383;48.766;9.270;2023-04-24T07:34:34;14.10;73.80
802;DHT22;383;48.766;9.270;2023-04-24T07:37:01;14.00;77.80
802;DHT22;383;48.766;9.270;2023-04-24T07:39:28;13.80;77.90
802;DHT22;383;48.766;9.270;2023-04-24T07:41:57;13.70;77.50
802;DHT22;383;48.766;9.270;2023-04-24T07:44:25;13.60;72.60
802;DHT22;383;48.766;9.270;2023-04-24T07:46:52;13.60;73.30
802;DHT22;383;48.766;9.270;2023-04-24T07:49:19;13.70;74.10
802;DHT22;383;48.766;9.270;2023-04-24T07:51:49;13.90;75.30
802;DHT22;383;48.766;9.270;2023-04-24T07:54:16;14.20;75.40
802;DHT22;383;48.766;9.270;2023-04-24T07:56:43;14.40;72.10
802;DHT22;383;48.766;9.270;2023-04-24T07:59:11;14.50;74.80
802;DHT22;383;48.766;9.270;2023-04-24T08:01:38;14.50;71.20
802;DHT22;383;48.766;9.270;2023-04-24T08:04:05;14.60;67.80
802;DHT22;383;48.766;9.270;2023-04-24T08:06:32;14.60;69.10
802;DHT22;383;48.766;9.270;2023-04-24T08:08:59;14.70;67.00
802;DHT22;383;48.766;9.270;2023-04-24T08:11:26;14.90;67.00
802;DHT22;383;48.766;9.270;2023-04-24T08:13:53;14.90;64.70
802;DHT22;383;48.766;9.270;2023-04-24T08:16:21;15.00;66.30
802;DHT22;383;48.766;9.270;2023-04-24T08:18:49;15.00;64.10
802;DHT22;383;48.766;9.270;2023-04-24T08:21:16;15.00;63.40
802;DHT22;383;48.766;9.270;2023-04-24T08:23:44;14.90;63.10
802;DHT22;383;48.766;9.270;2023-04-24T08:26:11;15.00;63.70
802;DHT22;383;48.766;9.270;2023-04-24T08:28:37;15.10;63.50
802;DHT22;383;48.766;9.270;2023-04-24T08:31:04;15.10;64.50
802;DHT22;383;48.766;9.270;2023-04-24T08:33:32;15.20;60.60
802;DHT22;383;48.766;9.270;2023-04-24T08:36:00;15.40;63.70
802;DHT22;383;48.766;9.270;2023-04-24T08:38:28;15.40;60.10
802;DHT22;383;48.766;9.270;2023-04-24T08:40:55;15.40;59.80
802;DHT22;383;48.766;9.270;2023-04-24T08:43:22;15.30;59.20
802;DHT22;383;48.766;9.270;2023-04-24T08:45:49;15.50;62.60
802;DHT22;383;48.766;9.270;2023-04-24T08:48:17;15.70;61.00
802;DHT22;383;48.766;9.270;2023-04-24T08:50:46;16.00;57.50
802;DHT22;383;48.766;9.270;2023-04-24T08:53:14;15.60;57.10
802;DHT22;383;48.766;9.270;2023-04-24T08:55:41;15.40;57.60
802;DHT22;383;48.766;9.270;2023-04-24T08:58:10;15.10;58.00
802;DHT22;383;48.766;9.270;2023-04-24T09:00:39;14.90;59.60
802;DHT22;383;48.766;9.270;2023-04-24T09:03:13;14.50;59.10
802;DHT22;383;48.766;9.270;2023-04-24T09:05:40;14.50;62.60
802;DHT22;383;48.766;9.270;2023-04-24T09:08:13;14.50;61.30
802;DHT22;383;48.766;9.270;2023-04-24T09:10:41;14.60;60.90
802;DHT22;383;48.766;9.270;2023-04-24T09:13:08;14.80;62.50
802;DHT22;383;48.766;9.270;2023-04-24T09:15:36;15.00;62.60
802;DHT22;383;48.766;9.270;2023-04-24T09:18:03;14.90;61.80
802;DHT22;383;48.766;9.270;2023-04-24T09:20:30;14.80;61.80
802;DHT22;383;48.766;9.270;2023-04-24T09:22:58;14.70;63.80
802;DHT22;383;48.766;9.270;2023-04-24T09:25:31;14.60;64.20
802;DHT22;383;48.766;9.270;2023-04-24T09:28:00;14.40;62.30
802;DHT22;383;48.766;9.270;2023-04-24T09:30:28;14.30;65.00
802;DHT22;383;48.766;9.270;2023-04-24T09:33:10;14.00;65.00
802;DHT22;383;48.766;9.270;2023-04-24T09:35:37;13.90;65.90
802;DHT22;383;48.766;9.270;2023-04-24T09:38:06;13.70;67.60
802;DHT22;383;48.766;9.270;2023-04-24T09:40:34;13.70;69.60
802;DHT22;383;48.766;9.270;2023-04-24T09:43:02;13.90;67.50
802;DHT22;383;48.766;9.270;2023-04-24T09:45:34;14.00;67.80
802;DHT22;383;48.766;9.270;2023-04-24T09:48:02;14.10;69.30
802;DHT22;383;48.766;9.270;2023-04-24T09:50:30;14.30;67.80
802;DHT22;383;48.766;9.270;2023-04-24T09:52:59;14.70;64.70
802;DHT22;383;48.766;9.270;2023-04-24T09:55:27;14.90;63.40
802;DHT22;383;48.766;9.270;2023-04-24T09:57:57;15.20;60.50
802;DHT22;383;48.766;9.270;2023-04-24T10:00:24;15.40;58.00
802;DHT22;383;48.766;9.270;2023-04-24T10:02:56;15.50;59.20
802;DHT22;383;48.766;9.270;2023-04-24T10:05:28;15.40;59.30
802;DHT22;383;48.766;9.270;2023-04-24T10:08:00;15.40;59.00
802;DHT22;383;48.766;9.270;2023-04-24T10:10:28;15.30;59.20
802;DHT22;383;48.766;9.270;2023-04-24T10:12:56;15.30;61.40
802;DHT22;383;48.766;9.270;2023-04-24T10:15:24;15.10;58.50
802;DHT22;383;48.766;9.270;2023-04-24T10:17:52;15.00;58.50
802;DHT22;383;48.766;9.270;2023-04-24T10:20:24;14.80;59.10
802;DHT22;383;48.766;9.270;2023-04-24T10:22:52;15.00;59.50
802;DHT22;383;48.766;9.270;2023-04-24T10:25:20;15.10;55.90
802;DHT22;383;48.766;9.270;2023-04-24T10:27:48;15.10;55.50
802;DHT22;383;48.766;9.270;2023-04-24T10:30:17;15.30;56.60
802;DHT22;383;48.766;9.270;2023-04-24T10:32:44;15.50;55.00
802;DHT22;383;48.766;9.270;2023-04-24T10:35:13;15.70;53.60
802;DHT22;383;48.766;9.270;2023-04-24T10:37:44;15.70;54.30
802;DHT22;383;48.766;9.270;2023-04-24T10:40:16;15.90;54.00
802;DHT22;383;48.766;9.270;2023-04-24T10:42:47;16.30;54.30
802;DHT22;383;48.766;9.270;2023-04-24T10:45:18;16.60;50.80
802;DHT22;383;48.766;9.270;2023-04-24T10:47:56;16.30;52.30
802;DHT22;383;48.766;9.270;2023-04-24T10:50:23;16.10;51.90
802;DHT22;383;48.766;9.270;2023-04-24T10:52:51;16.00;52.40
802;DHT22;383;48.766;9.270;2023-04-24T10:55:40;15.70;52.00
802;DHT22;383;48.766;9.270;2023-04-24T10:58:07;15.60;54.10
802;DHT22;383;48.766;9.270;2023-04-24T11:00:38;15.50;53.30
802;DHT22;383;48.766;9.270;2023-04-24T11:03:05;15.30;54.70
802;DHT22;383;48.766;9.270;2023-04-24T11:05:57;15.00;55.50
802;DHT22;383;48.766;9.270;2023-04-24T11:08:31;15.00;56.00
802;DHT22;383;48.766;9.270;2023-04-24T11:11:01;14.90;56.10
802;DHT22;383;48.766;9.270;2023-04-24T11:14:01;15.00;56.70
802;DHT22;383;48.766;9.270;2023-04-24T11:16:31;15.10;55.70
802;DHT22;383;48.766;9.270;2023-04-24T11:19:04;15.00;56.20
802;DHT22;383;48.766;9.270;2023-04-24T11:21:32;15.00;57.60
802;DHT22;383;48.766;9.270;2023-04-24T11:24:30;14.70;56.50
802;DHT22;383;48.766;9.270;2023-04-24T11:26:58;14.50;57.50
802;DHT22;383;48.766;9.270;2023-04-24T11:29:40;14.20;58.60
802;DHT22;383;48.766;9.270;2023-04-24T11:32:23;14.30;58.70
802;DHT22;383;48.766;9.270;2023-04-24T11:34:51;14.20;58.30
802;DHT22;383;48.766;9.270;2023-04-24T11:37:18;14.40;58.30
802;DHT22;383;48.766;9.270;2023-04-24T11:39:45;14.60;58.60
802;DHT22;383;48.766;9.270;2023-04-24T11:42:16;14.90;58.30
802;DHT22;383;48.766;9.270;2023-04-24T11:44:43;15.40;58.10
802;DHT22;383;48.766;9.270;2023-04-24T11:47:12;15.70;56.20
802;DHT22;383;48.766;9.270;2023-04-24T11:49:41;15.80;54.70
802;DHT22;383;48.766;9.270;2023-04-24T11:52:07;16.00;56.00
802;DHT22;383;48.766;9.270;2023-04-24T11:54:34;15.90;54.50
802;DHT22;383;48.766;9.270;2023-04-24T11:57:04;15.70;55.60
802;DHT22;383;48.766;9.270;2023-04-24T11:59:37;15.50;55.90
802;DHT22;383;48.766;9.270;2023-04-24T12:02:05;15.40;55.60
802;DHT22;383;48.766;9.270;2023-04-24T12:04:40;15.20;56.90
802;DHT22;383;48.766;9.270;2023-04-24T12:07:07;15.10;56.60
802;DHT22;383;48.766;9.270;2023-04-24T12:09:41;15.10;58.10
802;DHT22;383;48.766;9.270;2023-04-24T12:12:08;15.30;56.50
802;DHT22;383;48.766;9.270;2023-04-24T12:14:47;15.60;57.00
802;DHT22;383;48.766;9.270;2023-04-24T12:17:14;15.80;54.90
802;DHT22;383;48.766;9.270;2023-04-24T12:19:47;15.90;55.10
802;DHT22;383;48.766;9.270;2023-04-24T12:22:14;16.10;53.90
802;DHT22;383;48.766;9.270;2023-04-24T12:24:57;16.30;53.90
802;DHT22;383;48.766;9.270;2023-04-24T12:27:24;16.50;54.30
802;DHT22;383;48.766;9.270;2023-04-24T12:29:52;16.40;54.10
802;DHT22;383;48.766;9.270;2023-04-24T12:32:20;15.90;54.00
802;DHT22;383;48.766;9.270;2023-04-24T12:34:49;15.50;55.70
802;DHT22;383;48.766;9.270;2023-04-24T12:37:16;15.50;56.70
802;DHT22;383;48.766;9.270;2023-04-24T12:39:57;15.50;57.00
802;DHT22;383;48.766;9.270;2023-04-24T12:42:26;15.50;56.40
802;DHT22;383;48.766;9.270;2023-04-24T12:44:56;15.40;56.70
802;DHT22;383;48.766;9.270;2023-04-24T12:47:24;15.50;57.40
802;DHT22;383;48.766;9.270;2023-04-24T12:49:52;15.70;56.40
802;DHT22;383;48.766;9.270;2023-04-24T12:52:21;15.70;55.90
802;DHT22;383;48.766;9.270;2023-04-24T12:54:49;15.80;54.60
802;DHT22;383;48.766;9.270;2023-04-24T12:59:54;16.20;55.50
802;DHT22;383;48.766;9.270;2023-04-24T13:02:22;16.30;53.60
802;DHT22;383;48.766;9.270;2023-04-24T13:04:49;16.10;53.90
802;DHT22;383;48.766;9.270;2023-04-24T13:07:20;15.90;54.90
802;DHT22;383;48.766;9.270;2023-04-24T13:09:48;15.60;56.70
802;DHT22;383;48.766;9.270;2023-04-24T13:12:16;15.10;57.40
802;DHT22;383;48.766;9.270;2023-04-24T13:14:52;14.70;59.70
802;DHT22;383;48.766;9.270;2023-04-24T13:17:19;14.60;59.20
802;DHT22;383;48.766;9.270;2023-04-24T13:19:45;14.40;61.10
802;DHT22;383;48.766;9.270;2023-04-24T13:22:12;14.40;66.30
802;DHT22;383;48.766;9.270;2023-04-24T13:24:41;14.50;69.90
802;DHT22;383;48.766;9.270;2023-04-24T13:27:08;14.90;71.30
802;DHT22;383;48.766;9.270;2023-04-24T13:29:35;15.20;66.80
802;DHT22;383;48.766;9.270;2023-04-24T13:32:01;15.60;65.40
802;DHT22;383;48.766;9.270;2023-04-24T13:34:28;15.90;63.10
802;DHT22;383;48.766;9.270;2023-04-24T13:36:56;15.70;62.10
802;DHT22;383;48.766;9.270;2023-04-24T13:39:24;15.80;63.40
802;DHT22;383;48.766;9.270;2023-04-24T13:41:52;15.90;62.60
802;DHT22;383;48.766;9.270;2023-04-24T13:44:20;16.00;60.60
802;DHT22;383;48.766;9.270;2023-04-24T13:46:48;15.90;59.80
802;DHT22;383;48.766;9.270;2023-04-24T13:49:16;15.90;61.70
802;DHT22;383;48.766;9.270;2023-04-24T13:51:43;15.90;62.10
802;DHT22;383;48.766;9.270;2023-04-24T13:54:11;15.70;59.60
802;DHT22;383;48.766;9.270;2023-04-24T13:56:38;15.40;60.90
802;DHT22;383;48.766;9.270;2023-04-24T13:59:06;15.00;65.60
802;DHT22;383;48.766;9.270;2023-04-24T14:01:33;14.60;68.70
802;DHT22;383;48.766;9.270;2023-04-24T14:04:00;13.90;70.70
802;DHT22;383;48.766;9.270;2023-04-24T14:06:27;13.70;73.70
802;DHT22;383;48.766;9.270;2023-04-24T14:08:54;13.50;76.30
802;DHT22;383;48.766;9.270;2023-04-24T14:11:20;13.10;79.30
802;DHT22;383;48.766;9.270;2023-04-24T14:13:48;13.10;79.40
802;DHT22;383;48.766;9.270;2023-04-24T14:16:16;13.30;80.00
802;DHT22;383;48.766;9.270;2023-04-24T14:18:43;13.60;79.30
802;DHT22;383;48.766;9.270;2023-04-24T14:21:10;14.00;75.70
802;DHT22;383;48.766;9.270;2023-04-24T14:23:36;14.10;72.00
802;DHT22;383;48.766;9.270;2023-04-24T14:26:03;14.50;73.60
802;DHT22;383;48.766;9.270;2023-04-24T14:28:30;14.80;70.10
802;DHT22;383;48.766;9.270;2023-04-24T14:30:57;15.20;68.40
802;DHT22;383;48.766;9.270;2023-04-24T14:33:25;15.40;68.40
802;DHT22;383;48.766;9.270;2023-04-24T14:35:52;15.70;67.10
802;DHT22;383;48.766;9.270;2023-04-24T14:38:18;15.50;66.00
802;DHT22;383;48.766;9.270;2023-04-24T14:40:45;15.40;63.50
802;DHT22;383;48.766;9.270;2023-04-24T14:43:12;15.00;63.70
802;DHT22;383;48.766;9.270;2023-04-24T14:45:38;14.90;65.20
802;DHT22;383;48.766;9.270;2023-04-24T14:48:07;14.80;66.70
802;DHT22;383;48.766;9.270;2023-04-24T14:50:35;15.00;64.90
802;DHT22;383;48.766;9.270;2023-04-24T14:53:02;15.50;65.10
802;DHT22;383;48.766;9.270;2023-04-24T14:55:29;16.20;64.70
802;DHT22;383;48.766;9.270;2023-04-24T14:57:56;16.60;60.20
802;DHT22;383;48.766;9.270;2023-04-24T15:00:23;16.50;59.60
802;DHT22;383;48.766;9.270;2023-04-24T15:02:50;16.60;58.80
802;DHT22;383;48.766;9.270;2023-04-24T15:05:16;16.40;59.70
802;DHT22;383;48.766;9.270;2023-04-24T15:07:45;16.40;60.10
802;DHT22;383;48.766;9.270;2023-04-24T15:10:11;16.50;59.70
802;DHT22;383;48.766;9.270;2023-04-24T15:12:38;16.70;58.10
802;DHT22;383;48.766;9.270;2023-04-24T15:15:06;16.80;57.80
802;DHT22;383;48.766;9.270;2023-04-24T15:17:34;17.10;57.00
802;DHT22;383;48.766;9.270;2023-04-24T15:20:01;17.00;57.60
802;DHT22;383;48.766;9.270;2023-04-24T15:22:28;16.70;58.10
802;DHT22;383;48.766;9.270;2023-04-24T15:24:56;16.50;58.00
802;DHT22;383;48.766;9.270;2023-04-24T15:27:23;16.40;58.10
802;DHT22;383;48.766;9.270;2023-04-24T15:29:50;15.70;59.50
802;DHT22;383;48.766;9.270;2023-04-24T15:32:19;15.60;60.60
802;DHT22;383;48.766;9.270;2023-04-24T15:34:45;15.60;60.80
802;DHT22;383;48.766;9.270;2023-04-24T15:37:12;15.40;60.80
802;DHT22;383;48.766;9.270;2023-04-24T15:39:39;15.10;62.20
802;DHT22;383;48.766;9.270;2023-04-24T15:42:07;15.00;62.30
802;DHT22;383;48.766;9.270;2023-04-24T15:44:34;14.80;63.00
802;DHT22;383;48.766;9.270;2023-04-24T15:47:00;14.80;63.30
802;DHT22;383;48.766;9.270;2023-04-24T15:49:27;14.80;62.90
802;DHT22;383;48.766;9.270;2023-04-24T15:51:54;14.60;63.10
802;DHT22;383;48.766;9.270;2023-04-24T15:54:21;14.50;65.60
802;DHT22;383;48.766;9.270;2023-04-24T15:56:49;14.20;72.80
802;DHT22;383;48.766;9.270;2023-04-24T15:59:17;14.00;78.50
802;DHT22;383;48.766;9.270;2023-04-24T16:01:44;14.30;81.60
802;DHT22;383;48.766;9.270;2023-04-24T16:04:11;14.40;81.20
802;DHT22;383;48.766;9.270;2023-04-24T16:06:37;14.30;77.00
802;DHT22;383;48.766;9.270;2023-04-24T16:09:04;14.00;77.70
802;DHT22;383;48.766;9.270;2023-04-24T16:11:33;14.00;78.60
802;DHT22;383;48.766;9.270;2023-04-24T16:14:01;14.00;79.10
802;DHT22;383;48.766;9.270;2023-04-24T16:16:28;14.30;79.30
802;DHT22;383;48.766;9.270;2023-04-24T16:18:55;14.50;76.90
802;DHT22;383;48.766;9.270;2023-04-24T16:21:22;14.70;75.20
802;DHT22;383;48.766;9.270;2023-04-24T16:23:49;14.70;72.00
802;DHT22;383;48.766;9.270;2023-04-24T16:26:15;14.70;72.30
802;DHT22;383;48.766;9.270;2023-04-24T16:28:42;14.70;70.70
802;DHT22;383;48.766;9.270;2023-04-24T16:31:09;14.70;71.60
802;DHT22;383;48.766;9.270;2023-04-24T16:33:37;14.50;71.90
802;DHT22;383;48.766;9.270;2023-04-24T16:36:04;14.40;71.10
802;DHT22;383;48.766;9.270;2023-04-24T16:38:31;14.20;71.30
802;DHT22;383;48.766;9.270;2023-04-24T16:40:57;14.00;71.60
802;DHT22;383;48.766;9.270;2023-04-24T16:43:24;13.90;75.20
802;DHT22;383;48.766;9.270;2023-04-24T16:45:52;13.90;72.00